Hyalite Weather Station

This weather station provides temperature, wind speed, gust or max wind speed, and wind direction at 9982ft near the summit of Flanders Mountain. This data can be used with temperature and precipitation data from the Shower Falls SNOTEL site. If the data has not been updated recently you can view it directly on datagarrison.com

Elevation
9982ft
Jump to table bottom
Date Time Temperature
deg F
RH, % Wind Speed Wind Gust Wind Direction
03/25/19 01:00 21.0 96 6 10 SW - 246
03/25/19 00:00 22.6 96 2 4 W - 260
03/24/19 23:00 22.6 96 3 6 SW - 240
03/24/19 22:00 22.7 96 5 7 SW - 234
03/24/19 21:00 22.7 96 4 7 SW - 236
03/24/19 20:00 22.8 96 2 7 S - 164
03/24/19 19:00 23.7 96 2 8 SE - 128
03/24/19 18:00 23.5 96 1 7 E - 100
03/24/19 17:00 24.7 95 1 6 SE - 139
03/24/19 16:00 26.5 89 3 8 E - 79
03/24/19 15:00 26.3 83 2 9 NE - 39
03/24/19 14:00 29.2 76 2 9 N - 11
03/24/19 13:00 31.3 68 2 13 SW - 240
03/24/19 12:00 29.9 70 3 18 S - 197
03/24/19 11:00 29.6 69 3 10 SW - 233
03/24/19 10:00 27.5 70 3 11 SE - 136
03/24/19 09:00 26.2 71 3 13 SE - 152
03/24/19 08:00 23.6 72 4 12 SE - 132
03/24/19 07:00 22.2 75 6 13 SE - 114
03/24/19 06:00 22.2 75 7 14 E - 111
03/24/19 05:00 21.5 81 6 14 SE - 125
03/24/19 04:00 21.1 85 4 12 SE - 115
03/24/19 03:00 20.4 83 4 7 NE - 58
03/24/19 02:00 21.7 84 5 7 N - 1
03/24/19 01:00 21.7 87 7 9 NW - 314
03/24/19 00:00 21.9 85 7 9 NW - 295
03/23/19 23:00 22.5 85 5 8 W - 282
03/23/19 22:00 23.0 83 5 8 NW - 293
03/23/19 21:00 23.2 81 7 11 W - 275
03/23/19 20:00 23.6 79 8 12 W - 271
03/23/19 19:00 24.3 74 8 12 W - 267
03/23/19 18:00 28.0 62 9 16 W - 263
03/23/19 17:00 28.6 59 10 17 W - 268
03/23/19 16:00 29.3 54 10 17 W - 278
03/23/19 15:00 30.3 54 9 17 W - 279
03/23/19 14:00 29.3 58 8 17 W - 284
03/23/19 13:00 28.7 61 7 15 W - 281
03/23/19 12:00 25.6 69 7 16 W - 265
03/23/19 11:00 24.4 71 7 20 W - 275
03/23/19 10:00 23.8 75 8 17 W - 274
03/23/19 09:00 22.4 91 8 14 W - 260
03/23/19 08:00 21.5 90 9 14 W - 267
03/23/19 07:00 21.3 90 9 15 W - 272
03/23/19 06:00 21.9 89 9 15 W - 268
03/23/19 05:00 22.4 87 9 17 W - 277
03/23/19 04:00 22.2 86 10 18 W - 264
03/23/19 03:00 22.7 81 11 17 W - 260
03/23/19 02:00 23.1 79 12 17 W - 261
03/23/19 01:00 23.5 76 10 17 W - 263
03/23/19 00:00 23.3 75 11 16 SW - 241